createdAt,value
2023-03-10T00:03:35.376Z,0.74
2023-03-10T00:07:35.509Z,0.88
2023-03-10T00:11:35.653Z,0.81
2023-03-10T00:15:35.814Z,0.72
2023-03-10T00:19:35.882Z,0.77
2023-03-10T00:23:37.525Z,0.76
2023-03-10T00:27:36.151Z,0.65
2023-03-10T00:31:36.359Z,0.53
2023-03-10T00:35:36.429Z,0.65
2023-03-10T00:39:36.704Z,0.54
2023-03-10T00:43:36.683Z,0.39
2023-03-10T00:47:36.807Z,0.53
2023-03-10T00:51:36.937Z,0.61
2023-03-10T00:55:37.218Z,0.64
2023-03-10T00:59:49.474Z,0.72
2023-03-10T01:03:38.154Z,0.68
2023-03-10T01:07:37.092Z,0.72
2023-03-10T01:11:37.327Z,0.55
2023-03-10T01:15:37.246Z,0.52
2023-03-10T01:19:37.443Z,0.79
2023-03-10T01:23:37.624Z,0.88
2023-03-10T01:27:37.837Z,0.52
2023-03-10T01:31:38.769Z,0.60
2023-03-10T01:35:38.725Z,0.86
2023-03-10T01:39:38.398Z,0.48
2023-03-10T01:43:38.633Z,0.75
2023-03-10T01:47:38.854Z,0.54
2023-03-10T01:51:39.071Z,1.00
2023-03-10T01:55:39.257Z,0.72
2023-03-10T01:59:39.237Z,0.61
2023-03-10T02:03:39.205Z,0.44
2023-03-10T02:07:41.273Z,0.55
2023-03-10T02:11:39.228Z,0.67
2023-03-10T02:15:39.189Z,0.79
2023-03-10T02:19:39.182Z,0.46
2023-03-10T02:23:42.939Z,0.60
2023-03-10T02:27:40.104Z,1.18
2023-03-10T02:31:39.329Z,0.66
2023-03-10T02:35:39.097Z,0.78
2023-03-10T02:39:39.116Z,0.66
2023-03-10T02:43:39.039Z,0.54
2023-03-10T02:47:39.202Z,1.03
2023-03-10T02:51:38.988Z,0.51
2023-03-10T02:55:38.917Z,0.64
2023-03-10T02:59:38.872Z,0.89
2023-03-10T03:03:38.929Z,0.68
2023-03-10T03:07:38.821Z,0.56
2023-03-10T03:11:38.771Z,0.71
2023-03-10T03:15:38.743Z,0.58
2023-03-10T03:19:38.660Z,0.56
2023-03-10T03:23:38.702Z,0.64
2023-03-10T03:27:38.725Z,0.60
2023-03-10T03:31:38.665Z,0.59
2023-03-10T03:35:38.736Z,0.71
2023-03-10T03:39:38.621Z,0.47
2023-03-10T03:43:38.522Z,0.74
2023-03-10T03:47:38.728Z,0.89
2023-03-10T03:51:38.442Z,0.68
2023-03-10T03:55:38.440Z,0.55
2023-03-10T03:59:38.404Z,0.56
2023-03-10T04:03:38.332Z,0.53
2023-03-10T04:07:38.295Z,0.53
2023-03-10T04:11:38.258Z,0.49
2023-03-10T04:15:38.384Z,0.73
2023-03-10T04:19:38.271Z,0.54
2023-03-10T04:23:38.327Z,0.63
2023-03-10T04:27:38.169Z,0.58
2023-03-10T04:31:38.304Z,0.90
2023-03-10T04:35:38.166Z,0.74
2023-03-10T04:39:38.155Z,0.56
2023-03-10T04:43:38.553Z,0.56
2023-03-10T04:47:38.067Z,0.67
2023-03-10T04:51:37.992Z,0.70
2023-03-10T04:55:37.973Z,0.54
2023-03-10T04:59:37.967Z,1.05
2023-03-10T05:03:37.908Z,0.54
2023-03-10T05:07:37.853Z,0.53
2023-03-10T05:11:37.805Z,0.86
2023-03-10T05:15:37.801Z,0.86
2023-03-10T05:19:37.780Z,0.73
2023-03-10T05:23:37.853Z,0.56
2023-03-10T05:27:37.890Z,0.67
2023-03-10T05:31:38.121Z,0.79
2023-03-10T05:35:38.290Z,0.74
2023-03-10T05:39:38.356Z,1.01
2023-03-10T05:43:38.495Z,0.73
2023-03-10T05:47:38.622Z,1.10
2023-03-10T05:51:38.808Z,0.80
2023-03-10T05:55:38.925Z,0.59
2023-03-10T05:59:39.157Z,0.90
2023-03-10T06:03:39.289Z,0.56
2023-03-10T06:07:39.375Z,0.96
2023-03-10T06:11:39.501Z,0.65
2023-03-10T06:15:39.687Z,0.90
2023-03-10T06:19:39.817Z,0.93
2023-03-10T06:23:39.950Z,0.94
2023-03-10T06:27:40.050Z,1.15
2023-03-10T06:31:40.310Z,0.97
2023-03-10T06:35:40.404Z,0.84
2023-03-10T06:39:40.782Z,1.38
2023-03-10T06:43:40.816Z,1.07
2023-03-10T06:47:40.699Z,1.74
2023-03-10T06:51:40.839Z,1.97
2023-03-10T06:55:40.907Z,2.15
2023-03-10T06:59:41.029Z,1.56
2023-03-10T07:03:43.619Z,2.05
2023-03-10T07:07:41.325Z,1.30
2023-03-10T07:11:41.113Z,1.53
2023-03-10T07:15:41.041Z,1.61
2023-03-10T07:19:41.030Z,1.35
2023-03-10T07:23:41.305Z,1.26
2023-03-10T07:27:40.935Z,1.27
2023-03-10T07:31:40.957Z,1.43
2023-03-10T07:35:41.387Z,1.23
2023-03-10T07:39:41.333Z,1.11
2023-03-10T07:43:40.784Z,1.55
2023-03-10T07:47:40.837Z,1.16
2023-03-10T07:51:40.956Z,1.16
2023-03-10T07:55:41.368Z,1.03
2023-03-10T07:59:41.586Z,1.31
2023-03-10T08:03:41.503Z,1.30
2023-03-10T08:07:41.760Z,1.11
2023-03-10T08:11:41.683Z,1.05
2023-03-10T08:15:42.332Z,1.33
2023-03-10T08:19:42.406Z,1.36
2023-03-10T08:23:42.117Z,1.36
2023-03-10T08:27:42.116Z,1.58
2023-03-10T08:31:42.418Z,1.97
2023-03-10T08:35:42.932Z,1.70
2023-03-10T08:39:42.065Z,2.19
2023-03-10T08:43:42.035Z,2.64
2023-03-10T08:47:41.988Z,2.12
2023-03-10T08:51:41.943Z,1.96
2023-03-10T08:55:41.946Z,1.93
2023-03-10T08:59:41.905Z,1.82
2023-03-10T09:03:42.119Z,2.03
2023-03-10T09:07:42.345Z,1.73
2023-03-10T09:11:42.419Z,1.78
2023-03-10T09:15:42.571Z,1.53
2023-03-10T09:19:42.680Z,1.71
2023-03-10T09:23:42.740Z,1.83
2023-03-10T09:27:45.406Z,2.05
2023-03-10T09:31:42.901Z,3.22
2023-03-10T09:35:52.468Z,3.18
2023-03-10T09:39:43.870Z,3.26
2023-03-10T09:43:42.787Z,3.65
2023-03-10T09:47:42.992Z,3.77
2023-03-10T09:51:47.124Z,2.98
2023-03-10T09:55:47.804Z,3.12
2023-03-10T10:56:35.374Z,5.26
2023-03-10T11:00:35.282Z,3.18
2023-03-10T11:04:36.054Z,3.96
2023-03-10T11:08:35.254Z,3.72
2023-03-10T11:12:35.174Z,3.50
2023-03-10T11:16:35.131Z,4.33
2023-03-10T11:20:35.666Z,3.57
2023-03-10T11:24:35.597Z,3.26
2023-03-10T11:28:35.266Z,3.68
2023-03-10T11:32:35.567Z,2.68
2023-03-10T11:36:43.248Z,2.72
2023-03-10T11:40:36.383Z,2.67
2023-03-10T11:44:35.374Z,2.39
2023-03-10T11:48:35.312Z,2.15
2023-03-10T11:52:35.539Z,2.12
2023-03-10T11:56:35.273Z,2.42
2023-03-10T12:00:35.525Z,1.98
2023-03-10T12:04:35.650Z,1.86
2023-03-10T12:08:35.871Z,1.92
2023-03-10T12:12:36.001Z,1.59
2023-03-10T12:16:36.742Z,1.75
2023-03-10T12:20:36.592Z,1.96
2023-03-10T12:24:36.600Z,1.80
2023-03-10T12:28:36.599Z,2.25
2023-03-10T12:32:36.810Z,1.23
2023-03-10T12:36:36.966Z,1.99
2023-03-10T12:40:37.209Z,1.67
2023-03-10T12:44:37.427Z,1.52
2023-03-10T12:48:37.605Z,1.57
2023-03-10T12:52:37.793Z,1.80
2023-03-10T12:56:37.820Z,1.78
2023-03-10T13:00:37.829Z,1.75
2023-03-10T13:04:37.868Z,1.83
2023-03-10T13:08:38.027Z,2.06
2023-03-10T13:12:38.165Z,1.80
2023-03-10T13:16:38.518Z,1.27
2023-03-10T13:20:38.553Z,2.10
2023-03-10T13:24:39.146Z,1.84
2023-03-10T13:28:38.483Z,1.38
2023-03-10T13:32:38.517Z,1.65
2023-03-10T13:36:38.423Z,1.51
2023-03-10T13:40:38.440Z,1.14
2023-03-10T13:44:38.348Z,1.25
2023-03-10T13:48:38.261Z,1.09
2023-03-10T13:52:38.238Z,1.30
2023-03-10T13:56:38.636Z,1.39
2023-03-10T14:00:38.177Z,1.32
2023-03-10T14:04:38.176Z,1.40
2023-03-10T14:08:38.100Z,1.42
2023-03-10T14:12:38.019Z,1.44
2023-03-10T14:16:38.079Z,1.49
2023-03-10T14:20:38.083Z,1.11
2023-03-10T14:24:38.297Z,1.05
2023-03-10T14:28:38.442Z,1.11
2023-03-10T14:32:38.753Z,1.44
2023-03-10T14:36:38.889Z,1.25
2023-03-10T14:40:39.047Z,1.43
2023-03-10T14:44:39.271Z,1.37
2023-03-10T14:48:39.513Z,0.97
2023-03-10T14:52:39.669Z,1.12
2023-03-10T14:56:39.894Z,0.80
2023-03-10T15:00:40.103Z,0.84
2023-03-10T15:04:39.884Z,1.33
2023-03-10T15:08:39.848Z,1.02
2023-03-10T15:12:39.752Z,0.99
2023-03-10T15:16:39.781Z,1.64
2023-03-10T15:20:39.639Z,1.00
2023-03-10T15:24:39.666Z,0.61
2023-03-10T15:28:39.637Z,0.93
2023-03-10T15:32:39.631Z,1.22
2023-03-10T15:36:39.591Z,0.78
2023-03-10T15:40:39.502Z,1.11
2023-03-10T15:44:39.472Z,1.30
2023-03-10T15:48:39.399Z,0.94
2023-03-10T15:52:39.687Z,0.97
2023-03-10T15:56:39.814Z,1.50
2023-03-10T16:00:40.049Z,1.03
2023-03-10T16:04:40.306Z,1.13
2023-03-10T16:08:40.306Z,0.98
2023-03-10T16:12:40.256Z,0.88
2023-03-10T16:16:40.342Z,0.81
2023-03-10T16:20:40.339Z,0.57
2023-03-10T16:24:40.420Z,0.51
2023-03-10T16:28:40.702Z,0.85
2023-03-10T16:32:40.648Z,0.61
2023-03-10T16:36:40.631Z,0.29
2023-03-10T16:40:40.822Z,0.38
2023-03-10T16:44:40.845Z,0.48
2023-03-10T16:48:40.982Z,0.60
2023-03-10T16:52:41.063Z,0.40
2023-03-10T16:56:41.205Z,0.72
2023-03-10T17:00:41.351Z,0.34
2023-03-10T17:04:41.441Z,0.28
2023-03-10T17:08:41.445Z,0.55
2023-03-10T17:12:41.545Z,0.37
2023-03-10T17:16:41.793Z,0.54
2023-03-10T17:20:41.878Z,0.39
2023-03-10T17:24:41.992Z,0.50
2023-03-10T17:28:42.121Z,0.25
2023-03-10T17:32:42.350Z,0.81
2023-03-10T17:36:42.441Z,0.60
2023-03-10T17:40:42.615Z,0.43
2023-03-10T17:44:42.790Z,0.33
2023-03-10T17:48:42.946Z,0.27
2023-03-10T17:52:43.119Z,0.37
2023-03-10T17:56:43.330Z,0.34
2023-03-10T18:00:43.579Z,0.62
2023-03-10T18:04:43.549Z,0.50
2023-03-10T18:08:43.472Z,0.28
2023-03-10T18:12:43.447Z,0.30
2023-03-10T18:16:43.422Z,0.48
2023-03-10T18:20:43.373Z,0.42
2023-03-10T18:24:43.370Z,0.43
2023-03-10T18:28:43.331Z,0.44
2023-03-10T18:32:43.422Z,0.19
2023-03-10T18:36:43.304Z,0.25
2023-03-10T18:40:43.283Z,0.16
2023-03-10T18:44:43.242Z,0.33
2023-03-10T18:48:43.230Z,0.34
2023-03-10T18:52:43.246Z,0.31
2023-03-10T18:56:43.116Z,0.32
2023-03-10T19:00:43.146Z,0.18
2023-03-10T19:04:43.079Z,0.27
2023-03-10T19:08:43.045Z,0.19
2023-03-10T19:12:42.984Z,0.58
2023-03-10T19:16:42.951Z,0.32
2023-03-10T19:20:42.925Z,0.26
2023-03-10T19:24:42.948Z,0.29
2023-03-10T19:28:42.873Z,0.31
2023-03-10T19:32:42.826Z,0.21
2023-03-10T19:36:42.869Z,0.29
2023-03-10T19:40:42.772Z,0.34
2023-03-10T19:44:42.728Z,0.20
2023-03-10T19:48:42.749Z,0.22
2023-03-10T19:52:42.673Z,0.31
2023-03-10T19:56:42.664Z,0.37
2023-03-10T20:00:42.615Z,0.30
2023-03-10T20:04:42.547Z,0.20
2023-03-10T20:08:42.487Z,0.38
2023-03-10T20:12:42.482Z,0.36
2023-03-10T20:16:42.478Z,0.30
2023-03-10T20:20:42.391Z,0.43
2023-03-10T20:24:42.337Z,0.21
2023-03-10T20:28:43.226Z,0.26
2023-03-10T20:32:42.318Z,0.31
2023-03-10T20:36:42.251Z,0.36
2023-03-10T20:40:42.251Z,0.26
2023-03-10T20:44:42.170Z,0.24
2023-03-10T20:48:42.190Z,0.27
2023-03-10T20:52:42.129Z,0.46
2023-03-10T20:56:42.037Z,0.38
2023-03-10T21:00:42.071Z,0.20
2023-03-10T21:04:42.214Z,0.32
2023-03-10T21:08:42.177Z,0.46
2023-03-10T21:12:42.243Z,0.22
2023-03-10T21:16:42.376Z,0.28
2023-03-10T21:20:42.781Z,0.28
2023-03-10T21:24:42.481Z,0.35
2023-03-10T21:28:42.572Z,0.27
2023-03-10T21:32:42.753Z,0.30
2023-03-10T21:36:42.766Z,0.24
2023-03-10T21:40:42.905Z,0.25
2023-03-10T21:44:43.073Z,0.26
2023-03-10T21:48:43.175Z,0.18
2023-03-10T21:52:43.332Z,0.13
2023-03-10T21:56:43.480Z,0.42
2023-03-10T22:00:43.557Z,0.28
2023-03-10T22:04:43.703Z,0.17
2023-03-10T22:08:43.865Z,0.24
2023-03-10T22:12:43.976Z,0.57
2023-03-10T22:16:44.174Z,0.22
2023-03-10T22:20:44.344Z,0.44
2023-03-10T22:24:44.449Z,0.26
2023-03-10T22:28:44.622Z,0.32
2023-03-10T22:32:44.850Z,0.26
2023-03-10T22:36:44.921Z,0.43
2023-03-10T22:40:45.099Z,0.32
2023-03-10T22:44:45.274Z,0.26
2023-03-10T22:48:45.467Z,0.47
2023-03-10T22:52:45.543Z,0.29
2023-03-10T22:56:45.856Z,0.40
2023-03-10T23:00:46.370Z,0.36
2023-03-10T23:04:46.120Z,0.39
2023-03-10T23:08:46.315Z,0.27
2023-03-10T23:12:46.501Z,0.26
2023-03-10T23:16:46.695Z,0.45
2023-03-10T23:20:46.856Z,0.30
2023-03-10T23:24:47.045Z,0.51
2023-03-10T23:28:47.207Z,0.39
2023-03-10T23:32:47.508Z,0.30
2023-03-10T23:36:47.615Z,0.40
2023-03-10T23:40:47.860Z,0.08
2023-03-10T23:44:47.976Z,0.36
2023-03-10T23:48:48.224Z,0.35
2023-03-10T23:52:48.363Z,0.43
2023-03-10T23:56:48.563Z,0.34
